createdAt,value
2019-03-04T00:01:49.536Z,63.20
2019-03-04T00:04:26.619Z,63.50
2019-03-04T00:07:03.758Z,63.90
2019-03-04T00:19:59.747Z,72.70
2019-03-04T00:25:11.622Z,73.00
2019-03-04T00:27:48.591Z,72.40
2019-03-04T00:33:00.840Z,72.40
2019-03-04T00:35:38.330Z,71.80
2019-03-04T00:40:50.157Z,71.70
2019-03-04T00:43:27.375Z,71.10
2019-03-04T00:48:39.179Z,71.50
2019-03-04T00:56:26.724Z,69.00
2019-03-04T01:04:35.409Z,68.10
2019-03-04T01:07:12.569Z,68.30
2019-03-04T01:14:59.011Z,67.10
2019-03-04T01:17:36.137Z,63.20
2019-03-04T01:22:48.462Z,67.00
2019-03-04T01:25:25.895Z,66.20
2019-03-04T01:30:37.650Z,66.30
2019-03-04T01:40:58.620Z,66.30
2019-03-04T01:43:35.858Z,66.00
2019-03-04T01:56:31.591Z,65.80
2019-03-04T01:59:08.667Z,61.00
2019-03-04T02:01:45.970Z,67.10
2019-03-04T02:07:00.162Z,68.90
2019-03-04T02:09:36.537Z,64.10
2019-03-04T02:12:14.889Z,57.90
2019-03-04T02:14:52.217Z,56.70
2019-03-04T02:17:29.307Z,57.10
2019-03-04T02:20:06.435Z,58.00
2019-03-04T02:22:43.438Z,57.90
2019-03-04T02:25:22.464Z,57.60
2019-03-04T02:28:00.931Z,57.80
2019-03-04T02:30:38.015Z,57.90
2019-03-04T02:33:15.032Z,58.30
2019-03-04T02:35:52.354Z,66.10
2019-03-04T02:38:32.492Z,58.10
2019-03-04T02:41:09.647Z,58.00
2019-03-04T02:43:46.736Z,58.40
2019-03-04T02:46:23.911Z,58.00
2019-03-04T02:49:01.008Z,58.30
2019-03-04T02:51:38.375Z,57.50
2019-03-04T02:54:15.483Z,57.40
2019-03-04T02:56:52.752Z,57.40
2019-03-04T02:59:29.849Z,57.10
2019-03-04T03:02:08.091Z,57.30
2019-03-04T03:04:45.115Z,57.40
2019-03-04T03:07:22.252Z,57.10
2019-03-04T03:09:59.441Z,57.20
2019-03-04T03:12:36.512Z,56.70
2019-03-04T03:15:13.883Z,56.60
2019-03-04T03:17:51.033Z,57.30
2019-03-04T03:20:28.226Z,77.80
2019-03-04T03:23:05.331Z,64.20
2019-03-04T03:25:42.422Z,84.10
2019-03-04T03:28:19.690Z,57.90
2019-03-04T03:30:57.200Z,73.80
2019-03-04T03:33:34.252Z,82.50
2019-03-04T03:38:51.418Z,67.50
2019-03-04T03:41:28.721Z,60.20
2019-03-04T03:44:05.872Z,73.10
2019-03-04T03:49:17.749Z,90.10
2019-03-04T03:57:04.264Z,63.30
2019-03-04T03:59:41.530Z,61.80
2019-03-04T04:02:18.844Z,62.60
2019-03-04T04:04:55.919Z,54.10
2019-03-04T04:07:33.019Z,53.40
2019-03-04T04:10:10.987Z,52.60
2019-03-04T04:12:48.043Z,53.00
2019-03-04T04:15:27.538Z,52.70
2019-03-04T04:18:04.707Z,51.60
2019-03-04T04:20:41.767Z,52.20
2019-03-04T04:23:18.893Z,54.40
2019-03-04T04:25:56.345Z,59.80
2019-03-04T04:31:08.698Z,59.80
2019-03-04T04:33:45.931Z,60.00
2019-03-04T04:36:23.301Z,59.80
2019-03-04T04:52:04.070Z,65.50
2019-03-04T04:54:41.386Z,66.40
2019-03-04T04:57:18.648Z,66.40
2019-03-04T05:02:30.466Z,66.20
2019-03-04T05:44:21.720Z,69.70
2019-03-04T05:46:59.155Z,69.30
2019-03-04T05:49:36.391Z,68.90
2019-03-04T05:52:14.567Z,70.90
2019-03-04T05:54:51.701Z,71.50
2019-03-04T05:57:28.908Z,71.60
2019-03-04T06:00:06.089Z,59.80
2019-03-04T06:02:43.669Z,64.90
2019-03-04T06:05:21.242Z,78.70
2019-03-04T06:08:01.411Z,59.10
2019-03-04T06:10:38.479Z,59.10
2019-03-04T06:13:15.532Z,59.60
2019-03-04T06:15:53.611Z,59.10
2019-03-04T06:18:30.712Z,59.10
2019-03-04T06:21:09.287Z,85.60
2019-03-04T06:23:47.895Z,60.30
2019-03-04T06:26:25.409Z,60.50
2019-03-04T06:29:02.629Z,61.40
2019-03-04T06:31:40.117Z,83.10
2019-03-04T06:34:17.191Z,64.60
2019-03-04T06:39:30.107Z,79.60
2019-03-04T06:42:07.213Z,79.60
2019-03-04T06:47:18.861Z,79.50
2019-03-04T07:03:02.213Z,81.90
2019-03-04T07:05:52.677Z,82.40
2019-03-04T07:09:17.142Z,84.00
2019-03-04T07:14:31.284Z,84.20
2019-03-04T07:17:08.880Z,70.50
2019-03-04T07:19:46.767Z,71.30
2019-03-04T07:22:23.903Z,71.80
2019-03-04T07:25:01.530Z,88.00
2019-03-04T07:27:38.884Z,71.70
2019-03-04T07:30:18.336Z,71.50
2019-03-04T07:32:55.477Z,71.90
2019-03-04T07:35:32.600Z,71.80
2019-03-04T07:38:41.870Z,71.90
2019-03-04T07:41:19.173Z,72.20
2019-03-04T07:43:56.693Z,72.90
2019-03-04T07:46:33.964Z,73.10
2019-03-04T07:49:12.677Z,72.90
2019-03-04T07:51:49.893Z,72.30
2019-03-04T07:54:27.230Z,72.20
2019-03-04T07:57:05.731Z,72.60
2019-03-04T07:59:42.901Z,72.70
2019-03-04T08:02:21.447Z,72.70
2019-03-04T08:04:58.757Z,73.00
2019-03-04T08:07:50.317Z,87.80
2019-03-04T08:11:09.602Z,86.20
2019-03-04T08:13:50.485Z,80.30
2019-03-04T08:16:28.996Z,79.30
2019-03-04T08:19:08.796Z,85.70
2019-03-04T08:21:47.542Z,88.30
2019-03-04T08:24:24.969Z,90.60
2019-03-04T08:27:02.356Z,90.20
2019-03-04T08:29:39.454Z,89.00
2019-03-04T08:32:16.599Z,74.20
2019-03-04T08:34:53.750Z,74.20
2019-03-04T08:37:30.893Z,74.50
2019-03-04T08:40:13.905Z,74.10
2019-03-04T08:42:51.362Z,90.10
2019-03-04T08:45:28.509Z,87.80
2019-03-04T08:50:44.508Z,87.80
2019-03-04T08:53:21.721Z,80.50
2019-03-04T09:01:13.765Z,87.60
2019-03-04T09:03:54.318Z,87.30
2019-03-04T09:06:32.663Z,87.80
2019-03-04T09:09:11.381Z,87.30
2019-03-04T09:14:23.477Z,86.70
2019-03-04T09:17:00.634Z,87.20
2019-03-04T09:19:37.747Z,87.20
2019-03-04T09:22:15.007Z,87.70
2019-03-04T09:24:52.104Z,80.30
2019-03-04T09:27:29.574Z,82.70
2019-03-04T09:32:42.513Z,87.40
2019-03-04T09:40:30.705Z,83.60
2019-03-04T09:43:08.865Z,87.60
2019-03-04T09:48:23.215Z,88.30
2019-03-04T09:51:00.372Z,89.40
2019-03-04T09:56:15.357Z,88.70
2019-03-04T09:58:52.498Z,88.50
2019-03-04T10:10:05.461Z,89.10
2019-03-04T10:12:56.276Z,88.70
2019-03-04T10:16:18.452Z,90.40
2019-03-04T10:19:16.701Z,89.90
2019-03-04T10:22:05.160Z,84.30
2019-03-04T10:28:14.911Z,90.00
2019-03-04T10:31:27.106Z,85.10
2019-03-04T10:34:52.016Z,90.10
2019-03-04T10:37:58.727Z,83.80
2019-03-04T10:41:15.593Z,90.20
2019-03-04T10:44:48.683Z,90.10
2019-03-04T10:47:26.085Z,86.90
2019-03-04T10:50:03.184Z,89.90
2019-03-04T10:52:43.493Z,90.10
2019-03-04T10:55:20.935Z,90.00
2019-03-04T10:57:58.173Z,90.00
2019-03-04T11:00:36.427Z,90.10
2019-03-04T11:03:13.866Z,84.00
2019-03-04T11:08:25.759Z,90.10
2019-03-04T11:11:02.782Z,84.80
2019-03-04T11:13:39.974Z,90.00
2019-03-04T11:16:17.075Z,89.70
2019-03-04T11:18:54.435Z,89.50
2019-03-04T11:21:31.711Z,89.50
2019-03-04T11:24:09.575Z,89.30
2019-03-04T11:26:48.046Z,89.10
2019-03-04T11:31:59.889Z,89.30
2019-03-04T11:37:11.874Z,88.90
2019-03-04T11:39:52.452Z,89.40
2019-03-04T11:42:29.624Z,89.20
2019-03-04T11:47:41.626Z,90.10
2019-03-04T11:50:19.887Z,90.10
2019-03-04T11:52:58.615Z,89.60
2019-03-04T11:55:36.523Z,90.20
2019-03-04T11:58:13.707Z,89.80
2019-03-04T12:00:59.263Z,89.90
2019-03-04T12:03:36.257Z,90.10
2019-03-04T12:06:13.745Z,90.30
2019-03-04T12:08:51.086Z,90.20
2019-03-04T12:11:37.770Z,90.30
2019-03-04T12:16:41.283Z,90.30
2019-03-04T12:19:18.503Z,90.10
2019-03-04T12:21:55.600Z,85.20
2019-03-04T12:24:32.638Z,90.10
2019-03-04T12:27:09.997Z,90.10
2019-03-04T12:29:47.252Z,90.10
2019-03-04T12:32:29.699Z,90.20
2019-03-04T12:35:06.882Z,84.30
2019-03-04T12:37:44.096Z,90.20
2019-03-04T12:40:22.396Z,90.20
2019-03-04T12:42:59.772Z,90.00
2019-03-04T12:45:36.874Z,89.70
2019-03-04T12:50:48.726Z,90.20
2019-03-04T12:53:25.779Z,89.10
2019-03-04T12:56:02.938Z,90.00
2019-03-04T12:58:40.443Z,90.10
2019-03-04T13:01:17.665Z,90.20
2019-03-04T13:03:54.752Z,90.10
2019-03-04T13:06:31.810Z,90.20
2019-03-04T13:09:14.511Z,90.00
2019-03-04T13:11:47.726Z,90.20
2019-03-04T13:14:24.877Z,90.10
2019-03-04T13:17:01.999Z,90.30
2019-03-04T13:19:39.240Z,88.50
2019-03-04T13:22:17.253Z,90.00
2019-03-04T13:27:29.076Z,90.30
2019-03-04T13:32:40.883Z,90.60
2019-03-04T13:35:24.393Z,90.70
2019-03-04T13:37:57.764Z,90.60
2019-03-04T13:40:35.892Z,90.60
2019-03-04T13:43:13.607Z,90.50
2019-03-04T13:45:50.767Z,90.40
2019-03-04T13:48:27.809Z,86.30
2019-03-04T13:51:04.991Z,90.60
2019-03-04T13:53:42.082Z,90.50
2019-03-04T13:56:19.228Z,90.70
2019-03-04T13:58:58.102Z,90.60
2019-03-04T14:01:35.219Z,90.40
2019-03-04T14:04:13.459Z,90.30
2019-03-04T14:06:50.666Z,90.50
2019-03-04T14:09:28.116Z,90.50
2019-03-04T14:12:05.414Z,90.50
2019-03-04T14:17:17.474Z,90.40
2019-03-04T14:19:54.916Z,90.50
2019-03-04T14:22:40.076Z,90.40
2019-03-04T14:25:10.840Z,90.60
2019-03-04T14:27:48.006Z,90.90
2019-03-04T14:30:25.469Z,90.70
2019-03-04T14:33:02.631Z,90.60
2019-03-04T14:35:39.808Z,89.60
2019-03-04T14:38:17.050Z,90.60
2019-03-04T14:40:54.264Z,90.00
2019-03-04T14:46:06.826Z,90.50
2019-03-04T14:48:43.877Z,87.90
2019-03-04T14:51:21.032Z,90.90
2019-03-04T14:53:58.168Z,90.80
2019-03-04T14:56:35.221Z,90.70
2019-03-04T15:01:48.055Z,90.70
2019-03-04T15:04:25.325Z,90.50
2019-03-04T15:09:37.099Z,90.80
2019-03-04T15:12:15.503Z,90.50
2019-03-04T15:14:52.491Z,90.50
2019-03-04T15:17:36.595Z,90.40
2019-03-04T15:20:15.556Z,84.80
2019-03-04T15:22:53.241Z,90.40
2019-03-04T15:31:00.074Z,90.30
2019-03-04T15:33:38.215Z,90.20
2019-03-04T15:36:15.488Z,90.10
2019-03-04T15:38:52.683Z,90.30
2019-03-04T15:41:29.948Z,90.30
2019-03-04T15:44:07.185Z,90.30
2019-03-04T15:46:44.429Z,90.50
2019-03-04T15:49:21.552Z,90.40
2019-03-04T15:51:58.581Z,90.30
2019-03-04T15:54:35.594Z,90.50
2019-03-04T15:57:12.794Z,90.50
2019-03-04T15:59:49.895Z,90.30
2019-03-04T16:02:26.998Z,86.90
2019-03-04T16:05:04.145Z,90.30
2019-03-04T16:07:41.307Z,90.40
2019-03-04T16:10:20.822Z,90.20
2019-03-04T16:15:32.932Z,90.60
2019-03-04T16:18:10.087Z,90.60
2019-03-04T16:20:47.990Z,91.10
2019-03-04T16:23:25.254Z,90.70
2019-03-04T16:26:02.423Z,90.60
2019-03-04T16:28:39.622Z,90.80
2019-03-04T16:31:16.981Z,90.90
2019-03-04T16:33:54.910Z,90.60
2019-03-04T16:36:32.075Z,90.20
2019-03-04T16:39:09.842Z,90.50
2019-03-04T16:41:46.933Z,90.50
2019-03-04T16:46:58.666Z,90.20
2019-03-04T16:49:35.768Z,90.20
2019-03-04T16:52:14.840Z,90.10
2019-03-04T16:54:52.236Z,90.20
2019-03-04T16:57:29.471Z,90.00
2019-03-04T17:02:41.556Z,90.20
2019-03-04T17:05:20.094Z,90.60
2019-03-04T17:07:57.799Z,85.60
2019-03-04T17:10:35.025Z,90.50
2019-03-04T17:15:46.660Z,93.00
2019-03-04T17:18:23.747Z,92.40
2019-03-04T17:21:01.330Z,78.80
2019-03-04T17:23:38.503Z,79.00
2019-03-04T17:26:15.778Z,79.00
2019-03-04T17:28:52.862Z,79.00
2019-03-04T17:31:30.393Z,78.70
2019-03-04T17:34:07.583Z,78.90
2019-03-04T17:36:44.638Z,79.10
2019-03-04T17:41:57.411Z,81.10
2019-03-04T17:44:34.835Z,78.70
2019-03-04T17:47:12.014Z,78.30
2019-03-04T17:49:49.036Z,78.40
2019-03-04T17:52:26.052Z,78.20
2019-03-04T17:55:03.303Z,78.30
2019-03-04T17:57:40.562Z,77.90
2019-03-04T18:03:53.943Z,77.70
2019-03-04T18:06:30.958Z,77.70
2019-03-04T18:09:09.239Z,78.00
2019-03-04T18:11:47.639Z,78.30
2019-03-04T18:14:25.015Z,78.00
2019-03-04T18:17:02.309Z,77.90
2019-03-04T18:19:39.425Z,78.00
2019-03-04T18:22:16.564Z,77.70
2019-03-04T18:24:53.731Z,77.80
2019-03-04T18:27:34.429Z,77.30
2019-03-04T18:30:29.653Z,78.00
2019-03-04T18:33:40.998Z,77.30
2019-03-04T18:37:08.031Z,77.70
2019-03-04T18:40:09.215Z,77.70
2019-03-04T18:42:54.530Z,77.50
2019-03-04T18:45:51.219Z,77.60
2019-03-04T18:48:55.271Z,77.50
2019-03-04T18:51:37.106Z,77.70
2019-03-04T18:54:25.155Z,77.70
2019-03-04T18:57:02.366Z,77.60
2019-03-04T18:59:39.378Z,77.80
2019-03-04T19:02:16.659Z,77.90
2019-03-04T19:04:53.942Z,78.10
2019-03-04T19:07:31.377Z,78.50
2019-03-04T19:10:08.566Z,93.20
2019-03-04T19:12:45.700Z,93.30
2019-03-04T19:15:22.938Z,78.80
2019-03-04T19:17:59.970Z,78.70
2019-03-04T19:20:37.162Z,78.60
2019-03-04T19:23:14.343Z,78.70
2019-03-04T19:25:51.550Z,78.80
2019-03-04T19:28:28.652Z,78.70
2019-03-04T19:31:05.871Z,78.80
2019-03-04T19:33:43.027Z,78.70
2019-03-04T19:36:20.538Z,78.50
2019-03-04T19:38:57.683Z,94.40
2019-03-04T19:41:34.754Z,78.90
2019-03-04T19:44:12.354Z,79.00
2019-03-04T19:46:49.745Z,78.80
2019-03-04T19:49:26.816Z,93.80
2019-03-04T19:52:04.092Z,79.00
2019-03-04T19:54:41.481Z,79.00
2019-03-04T19:57:19.134Z,79.20
2019-03-04T19:59:56.818Z,79.30
2019-03-04T20:02:33.834Z,79.30
2019-03-04T20:05:11.373Z,79.50
2019-03-04T20:07:48.586Z,79.80
2019-03-04T20:10:26.214Z,79.60
2019-03-04T20:13:03.628Z,79.50
2019-03-04T20:15:40.749Z,79.60
2019-03-04T20:18:17.993Z,79.90
2019-03-04T20:20:56.716Z,80.10
2019-03-04T20:23:33.876Z,80.40
2019-03-04T20:26:11.202Z,80.40
2019-03-04T20:28:48.608Z,80.40
2019-03-04T20:31:26.436Z,98.70
2019-03-04T20:34:03.520Z,80.90
2019-03-04T20:36:42.389Z,80.80
2019-03-04T20:39:20.106Z,80.70
2019-03-04T20:41:57.567Z,80.70
2019-03-04T20:44:34.729Z,81.00
2019-03-04T20:47:12.000Z,98.20
2019-03-04T20:49:49.059Z,80.30
2019-03-04T20:52:26.378Z,80.10
2019-03-04T20:55:03.794Z,79.80
2019-03-04T20:57:41.271Z,79.90
2019-03-04T21:00:21.429Z,79.90
2019-03-04T21:02:58.825Z,80.10
2019-03-04T21:05:36.061Z,80.20
2019-03-04T21:08:13.691Z,79.00
2019-03-04T21:10:51.192Z,78.60
2019-03-04T21:13:35.019Z,78.10
2019-03-04T21:16:07.262Z,78.60
2019-03-04T21:18:44.372Z,78.60
2019-03-04T21:21:21.859Z,82.10
2019-03-04T21:23:59.035Z,77.50
2019-03-04T21:26:45.431Z,78.30
2019-03-04T21:29:54.180Z,77.40
2019-03-04T21:33:00.298Z,77.40
2019-03-04T21:36:16.771Z,79.90
2019-03-04T21:38:54.713Z,76.80
2019-03-04T21:41:56.850Z,76.60
2019-03-04T21:45:16.933Z,76.90
2019-03-04T21:48:07.399Z,76.70
2019-03-04T21:51:11.393Z,77.10
2019-03-04T21:53:51.006Z,75.80
2019-03-04T21:57:04.574Z,75.80
2019-03-04T21:59:42.399Z,75.90
2019-03-04T22:02:27.756Z,75.80
2019-03-04T22:05:06.327Z,76.70
2019-03-04T22:07:43.455Z,76.10
2019-03-04T22:10:20.851Z,76.20
2019-03-04T22:12:58.130Z,99.90
2019-03-04T22:15:36.427Z,75.90
2019-03-04T22:18:14.228Z,75.80
2019-03-04T22:20:51.418Z,74.10
2019-03-04T22:23:28.678Z,74.60
2019-03-04T22:26:05.840Z,74.50
2019-03-04T22:28:42.961Z,74.50
2019-03-04T22:31:20.138Z,74.10
2019-03-04T22:34:07.735Z,73.80
2019-03-04T22:36:38.639Z,73.70
2019-03-04T22:39:15.790Z,73.00
2019-03-04T22:41:57.146Z,74.10
2019-03-04T22:44:34.906Z,74.00
2019-03-04T22:47:11.998Z,74.50
2019-03-04T22:49:49.213Z,75.20
2019-03-04T22:52:45.989Z,74.40
2019-03-04T22:55:49.149Z,73.70
2019-03-04T22:58:28.823Z,73.00
2019-03-04T23:01:42.624Z,91.80
2019-03-04T23:04:27.698Z,72.50
2019-03-04T23:07:32.422Z,72.30
2019-03-04T23:10:25.236Z,72.50
2019-03-04T23:13:21.116Z,72.00
2019-03-04T23:15:59.270Z,71.90
2019-03-04T23:18:36.408Z,80.60
2019-03-04T23:21:13.599Z,82.50
2019-03-04T23:23:50.765Z,80.90
2019-03-04T23:26:28.022Z,81.30
2019-03-04T23:29:05.117Z,73.80
2019-03-04T23:31:42.131Z,74.00
2019-03-04T23:34:19.319Z,80.80
2019-03-04T23:39:31.132Z,80.40
2019-03-04T23:42:08.215Z,80.20
2019-03-04T23:50:08.159Z,79.80
2019-03-04T23:52:45.572Z,79.80
2019-03-04T23:57:57.460Z,78.60
